createdAt,value
2022-08-03T00:00:17.905Z,20.41
2022-08-03T00:01:18.344Z,20.41
2022-08-03T00:02:18.102Z,20.38
2022-08-03T00:03:17.935Z,20.35
2022-08-03T00:04:17.845Z,20.35
2022-08-03T00:05:17.844Z,20.32
2022-08-03T00:06:17.825Z,20.31
2022-08-03T00:07:17.816Z,20.33
2022-08-03T00:08:17.823Z,20.33
2022-08-03T00:09:17.796Z,20.33
2022-08-03T00:10:17.786Z,20.35
2022-08-03T00:11:17.767Z,20.33
2022-08-03T00:12:18.387Z,20.35
2022-08-03T00:13:17.773Z,20.35
2022-08-03T00:14:17.748Z,20.36
2022-08-03T00:15:17.721Z,20.35
2022-08-03T00:16:17.868Z,20.35
2022-08-03T00:17:17.698Z,20.33
2022-08-03T00:18:17.687Z,20.32
2022-08-03T00:19:17.698Z,20.29
2022-08-03T00:20:17.740Z,20.28
2022-08-03T00:21:17.663Z,20.28
2022-08-03T00:22:17.953Z,20.28
2022-08-03T00:23:17.642Z,20.26
2022-08-03T00:24:17.631Z,20.26
2022-08-03T00:25:17.602Z,20.28
2022-08-03T00:26:17.599Z,20.24
2022-08-03T00:27:17.573Z,20.23
2022-08-03T00:28:17.579Z,20.21
2022-08-03T00:29:17.585Z,20.21
2022-08-03T00:30:17.662Z,20.20
2022-08-03T00:31:24.245Z,20.18
2022-08-03T00:32:19.319Z,20.17
2022-08-03T00:33:17.513Z,20.16
2022-08-03T00:34:17.521Z,20.13
2022-08-03T00:35:36.542Z,20.11
2022-08-03T00:36:18.485Z,20.08
2022-08-03T00:37:17.461Z,20.06
2022-08-03T00:38:17.463Z,20.03
2022-08-03T00:39:17.482Z,20.05
2022-08-03T00:40:17.425Z,20.02
2022-08-03T00:41:17.415Z,20.02
2022-08-03T00:42:17.736Z,20.01
2022-08-03T00:43:17.383Z,19.99
2022-08-03T00:44:17.387Z,19.99
2022-08-03T00:45:17.374Z,19.98
2022-08-03T00:46:21.270Z,19.96
2022-08-03T00:47:17.344Z,19.96
2022-08-03T00:48:29.708Z,19.96
2022-08-03T00:49:18.355Z,19.94
2022-08-03T00:50:17.307Z,19.94
2022-08-03T00:51:17.577Z,19.94
2022-08-03T00:52:17.296Z,19.94
2022-08-03T00:53:17.279Z,19.92
2022-08-03T00:54:17.268Z,19.91
2022-08-03T00:55:17.278Z,19.92
2022-08-03T00:56:17.227Z,19.91
2022-08-03T00:57:17.228Z,19.92
2022-08-03T00:58:17.228Z,19.91
2022-08-03T00:59:17.216Z,19.92
2022-08-03T01:00:17.700Z,19.88
2022-08-03T01:01:17.265Z,19.86
2022-08-03T01:02:17.477Z,19.83
2022-08-03T01:03:17.159Z,19.81
2022-08-03T01:04:17.161Z,19.78
2022-08-03T01:05:17.419Z,19.76
2022-08-03T01:06:17.119Z,19.74
2022-08-03T01:07:17.122Z,19.71
2022-08-03T01:08:17.111Z,19.69
2022-08-03T01:09:17.092Z,19.69
2022-08-03T01:10:17.082Z,19.68
2022-08-03T01:11:17.082Z,19.68
2022-08-03T01:12:17.486Z,19.65
2022-08-03T01:13:59.215Z,19.65
2022-08-03T01:14:20.002Z,19.63
2022-08-03T01:15:17.030Z,19.63
2022-08-03T01:16:17.003Z,19.66
2022-08-03T01:17:17.003Z,19.65
2022-08-03T01:18:16.997Z,19.66
2022-08-03T01:19:17.083Z,19.65
2022-08-03T01:20:16.974Z,19.65
2022-08-03T01:21:17.448Z,19.66
2022-08-03T01:22:17.253Z,19.69
2022-08-03T01:23:16.928Z,19.71
2022-08-03T01:24:16.934Z,19.69
2022-08-03T01:25:16.907Z,19.69
2022-08-03T01:26:16.895Z,19.69
2022-08-03T01:27:17.146Z,19.66
2022-08-03T01:28:16.881Z,19.68
2022-08-03T01:29:16.876Z,19.71
2022-08-03T01:30:16.872Z,19.69
2022-08-03T01:31:16.847Z,19.69
2022-08-03T01:32:59.812Z,19.68
2022-08-03T01:33:17.821Z,19.68
2022-08-03T01:34:16.849Z,19.66
2022-08-03T01:35:16.797Z,19.66
2022-08-03T01:36:17.070Z,19.65
2022-08-03T01:37:16.787Z,19.66
2022-08-03T01:38:16.767Z,19.66
2022-08-03T01:39:16.757Z,19.63
2022-08-03T01:40:16.757Z,19.63
2022-08-03T01:41:16.726Z,19.61
2022-08-03T01:42:17.090Z,19.59
2022-08-03T01:44:27.043Z,19.55
2022-08-03T01:44:27.548Z,19.54
2022-08-03T01:45:17.680Z,19.48
2022-08-03T01:46:16.682Z,19.50
2022-08-03T01:47:16.661Z,19.47
2022-08-03T01:48:16.882Z,19.47
2022-08-03T01:49:16.704Z,19.46
2022-08-03T01:50:16.908Z,19.41
2022-08-03T01:51:16.624Z,19.40
2022-08-03T01:52:16.820Z,19.39
2022-08-03T01:53:16.623Z,19.36
2022-08-03T01:54:16.591Z,19.32
2022-08-03T01:55:16.572Z,19.31
2022-08-03T01:56:16.555Z,19.29
2022-08-03T01:57:16.555Z,19.29
2022-08-03T01:58:16.541Z,19.28
2022-08-03T01:59:16.563Z,19.28
2022-08-03T02:00:16.525Z,19.26
2022-08-03T02:01:16.588Z,19.28
2022-08-03T02:02:33.249Z,19.28
2022-08-03T02:03:17.495Z,19.26
2022-08-03T02:04:16.473Z,19.26
2022-08-03T02:05:16.467Z,19.25
2022-08-03T02:07:00.696Z,19.26
2022-08-03T02:07:17.434Z,19.26
2022-08-03T02:08:16.423Z,19.22
2022-08-03T02:09:16.705Z,19.22
2022-08-03T02:10:16.398Z,19.22
2022-08-03T02:11:17.387Z,19.21
2022-08-03T02:12:16.602Z,19.21
2022-08-03T02:13:16.653Z,19.18
2022-08-03T02:14:16.363Z,19.19
2022-08-03T02:15:16.359Z,19.19
2022-08-03T02:16:16.605Z,19.18
2022-08-03T02:17:16.327Z,19.19
2022-08-03T02:18:16.361Z,19.21
2022-08-03T02:19:16.336Z,19.19
2022-08-03T02:20:16.295Z,19.21
2022-08-03T02:21:55.467Z,19.21
2022-08-03T02:22:17.551Z,19.19
2022-08-03T02:23:16.248Z,19.21
2022-08-03T02:24:16.278Z,19.21
2022-08-03T02:25:16.237Z,19.21
2022-08-03T02:26:16.219Z,19.22
2022-08-03T02:27:16.200Z,19.19
2022-08-03T02:28:16.218Z,19.19
2022-08-03T02:29:16.211Z,19.18
2022-08-03T02:30:16.181Z,19.18
2022-08-03T02:31:16.170Z,19.16
2022-08-03T02:32:16.407Z,19.16
2022-08-03T02:33:16.141Z,19.16
2022-08-03T02:34:16.164Z,19.13
2022-08-03T02:35:16.122Z,19.11
2022-08-03T02:36:16.119Z,19.08
2022-08-03T02:37:16.093Z,19.08
2022-08-03T02:38:16.099Z,19.07
2022-08-03T02:39:16.085Z,19.06
2022-08-03T02:40:16.579Z,19.06
2022-08-03T02:41:16.061Z,19.07
2022-08-03T02:42:16.212Z,19.07
2022-08-03T02:43:16.034Z,19.06
2022-08-03T02:44:16.052Z,19.06
2022-08-03T02:45:16.015Z,19.04
2022-08-03T02:46:16.008Z,19.02
2022-08-03T02:47:15.984Z,19.00
2022-08-03T02:48:15.989Z,18.99
2022-08-03T02:49:49.669Z,18.98
2022-08-03T02:50:17.018Z,18.94
2022-08-03T02:51:15.954Z,18.92
2022-08-03T02:52:17.088Z,18.85
2022-08-03T02:53:15.926Z,18.82
2022-08-03T02:54:15.925Z,18.81
2022-08-03T02:55:15.906Z,18.78
2022-08-03T02:56:15.875Z,18.75
2022-08-03T02:57:15.898Z,18.75
2022-08-03T02:58:15.858Z,18.72
2022-08-03T02:59:15.854Z,18.70
2022-08-03T03:00:27.597Z,18.70
2022-08-03T03:01:17.146Z,18.69
2022-08-03T03:02:16.101Z,18.70
2022-08-03T03:03:15.831Z,18.70
2022-08-03T03:04:15.807Z,18.70
2022-08-03T03:05:54.836Z,18.69
2022-08-03T03:06:17.140Z,18.70
2022-08-03T03:07:15.779Z,18.72
2022-08-03T03:08:18.022Z,18.75
2022-08-03T03:09:16.710Z,18.78
2022-08-03T03:10:15.754Z,18.76
2022-08-03T03:11:15.730Z,18.78
2022-08-03T03:12:15.832Z,18.78
2022-08-03T03:13:15.712Z,18.80
2022-08-03T03:14:15.679Z,18.80
2022-08-03T03:15:16.693Z,18.82
2022-08-03T03:16:15.944Z,18.81
2022-08-03T03:17:15.659Z,18.81
2022-08-03T03:18:18.962Z,18.81
2022-08-03T03:19:16.654Z,18.82
2022-08-03T03:20:15.791Z,18.80
2022-08-03T03:21:16.603Z,18.81
2022-08-03T03:22:15.913Z,18.78
2022-08-03T03:23:15.581Z,18.76
2022-08-03T03:24:15.573Z,18.76
2022-08-03T03:25:15.576Z,18.75
2022-08-03T03:26:15.581Z,18.72
2022-08-03T03:27:16.567Z,18.73
2022-08-03T03:28:15.537Z,18.73
2022-08-03T03:29:15.537Z,18.70
2022-08-03T03:30:15.535Z,18.69
2022-08-03T03:31:15.484Z,18.67
2022-08-03T03:32:15.729Z,18.65
2022-08-03T03:33:15.474Z,18.63
2022-08-03T03:34:15.454Z,18.62
2022-08-03T03:35:15.469Z,18.60
2022-08-03T03:36:15.444Z,18.58
2022-08-03T03:37:15.423Z,18.58
2022-08-03T03:38:15.415Z,18.58
2022-08-03T03:39:16.196Z,18.57
2022-08-03T03:40:15.414Z,18.57
2022-08-03T03:41:19.547Z,18.55
2022-08-03T03:42:15.780Z,18.52
2022-08-03T03:43:15.366Z,18.51
2022-08-03T03:44:15.348Z,18.52
2022-08-03T03:45:15.619Z,18.52
2022-08-03T03:46:15.607Z,18.51
2022-08-03T03:47:15.305Z,18.52
2022-08-03T03:48:15.331Z,18.51
2022-08-03T03:49:15.386Z,18.50
2022-08-03T03:50:19.707Z,18.51
2022-08-03T03:51:15.266Z,18.52
2022-08-03T03:52:16.558Z,18.52
2022-08-03T03:53:15.885Z,18.52
2022-08-03T03:54:15.241Z,18.51
2022-08-03T03:55:15.249Z,18.50
2022-08-03T03:56:15.318Z,18.50
2022-08-03T03:57:15.372Z,18.48
2022-08-03T03:58:16.162Z,18.50
2022-08-03T03:59:15.449Z,18.50
2022-08-03T04:00:15.180Z,18.51
2022-08-03T04:01:15.199Z,18.52
2022-08-03T04:02:16.470Z,18.51
2022-08-03T04:03:15.121Z,18.51
2022-08-03T04:04:15.121Z,18.51
2022-08-03T04:05:15.133Z,18.51
2022-08-03T04:06:15.107Z,18.52
2022-08-03T04:07:15.086Z,18.52
2022-08-03T04:08:15.083Z,18.52
2022-08-03T04:09:15.313Z,18.52
2022-08-03T04:10:15.133Z,18.52
2022-08-03T04:11:15.255Z,18.52
2022-08-03T04:12:16.219Z,18.52
2022-08-03T04:13:15.012Z,18.54
2022-08-03T04:14:15.020Z,18.54
2022-08-03T04:15:15.278Z,18.55
2022-08-03T04:16:14.988Z,18.57
2022-08-03T04:17:15.903Z,18.57
2022-08-03T04:18:14.974Z,18.55
2022-08-03T04:19:17.489Z,18.57
2022-08-03T04:20:15.953Z,18.55
2022-08-03T04:21:14.925Z,18.58
2022-08-03T04:22:15.078Z,18.58
2022-08-03T04:23:15.781Z,18.60
2022-08-03T04:24:14.896Z,18.62
2022-08-03T04:25:14.912Z,18.62
2022-08-03T04:26:14.874Z,18.63
2022-08-03T04:27:14.875Z,18.63
2022-08-03T04:28:31.185Z,18.63
2022-08-03T04:29:15.835Z,18.63
2022-08-03T04:30:14.836Z,18.63
2022-08-03T04:31:15.621Z,18.65
2022-08-03T04:32:15.717Z,18.67
2022-08-03T04:33:15.216Z,18.66
2022-08-03T04:34:15.827Z,18.69
2022-08-03T04:35:14.789Z,18.70
2022-08-03T04:36:14.747Z,18.72
2022-08-03T04:37:14.909Z,18.75
2022-08-03T04:38:14.737Z,18.75
2022-08-03T04:39:14.738Z,18.73
2022-08-03T04:40:14.741Z,18.75
2022-08-03T04:41:14.714Z,18.76
2022-08-03T04:42:15.592Z,18.80
2022-08-03T04:43:14.689Z,18.78
2022-08-03T04:44:14.958Z,18.78
2022-08-03T04:45:15.071Z,18.76
2022-08-03T04:46:14.653Z,18.76
2022-08-03T04:47:14.639Z,18.76
2022-08-03T04:48:14.619Z,18.75
2022-08-03T04:49:14.690Z,18.76
2022-08-03T04:50:19.440Z,18.76
2022-08-03T04:51:16.061Z,18.76
2022-08-03T04:52:14.800Z,18.80
2022-08-03T04:53:14.591Z,18.82
2022-08-03T04:54:14.563Z,18.81
2022-08-03T04:55:14.533Z,18.82
2022-08-03T04:56:15.293Z,18.85
2022-08-03T04:57:22.519Z,18.87
2022-08-03T04:58:15.516Z,18.88
2022-08-03T04:59:15.514Z,18.90
2022-08-03T05:00:14.501Z,18.91
2022-08-03T05:01:15.136Z,18.92
2022-08-03T05:02:14.707Z,18.94
2022-08-03T05:03:20.468Z,18.95
2022-08-03T05:04:15.451Z,18.95
2022-08-03T05:05:14.446Z,18.98
2022-08-03T05:06:16.202Z,19.00
2022-08-03T05:07:14.416Z,19.00
2022-08-03T05:08:14.668Z,19.02
2022-08-03T05:09:14.408Z,19.06
2022-08-03T05:10:16.250Z,19.07
2022-08-03T05:11:14.358Z,19.11
2022-08-03T05:12:18.447Z,19.16
2022-08-03T05:13:15.209Z,19.18
2022-08-03T05:14:14.681Z,19.21
2022-08-03T05:15:15.527Z,19.22
2022-08-03T05:16:15.429Z,19.26
2022-08-03T05:17:14.288Z,19.28
2022-08-03T05:18:15.253Z,19.31
2022-08-03T05:19:14.279Z,19.33
2022-08-03T05:20:16.561Z,19.36
2022-08-03T05:21:15.469Z,19.37
2022-08-03T05:22:15.500Z,19.40
2022-08-03T05:23:18.200Z,19.44
2022-08-03T05:24:14.492Z,19.48
2022-08-03T05:25:17.752Z,19.54
2022-08-03T05:26:15.510Z,19.55
2022-08-03T05:27:15.420Z,19.59
2022-08-03T05:28:15.071Z,19.63
2022-08-03T05:29:14.970Z,19.65
2022-08-03T05:30:26.789Z,19.68
2022-08-03T05:31:15.174Z,19.73
2022-08-03T05:32:14.121Z,19.74
2022-08-03T05:33:15.087Z,19.77
2022-08-03T05:34:14.953Z,19.83
2022-08-03T05:36:01.745Z,19.84
2022-08-03T05:36:15.091Z,19.87
2022-08-03T05:37:14.971Z,19.91
2022-08-03T05:38:14.884Z,19.92
2022-08-03T05:39:15.812Z,19.95
2022-08-03T05:40:14.313Z,19.98
2022-08-03T05:41:23.567Z,20.02
2022-08-03T05:42:15.172Z,20.03
2022-08-03T05:43:14.405Z,20.08
2022-08-03T05:44:15.025Z,20.13
2022-08-03T05:45:13.987Z,20.16
2022-08-03T05:46:13.982Z,20.17
2022-08-03T05:47:15.055Z,20.21
2022-08-03T05:48:13.954Z,20.23
2022-08-03T05:49:14.650Z,20.28
2022-08-03T05:50:14.767Z,20.31
2022-08-03T05:51:13.936Z,20.35
2022-08-03T05:52:16.990Z,20.35
2022-08-03T05:53:13.919Z,20.38
2022-08-03T05:54:14.399Z,20.42
2022-08-03T05:55:13.880Z,20.47
2022-08-03T05:56:16.378Z,20.50
2022-08-03T05:57:14.357Z,20.52
2022-08-03T05:58:13.854Z,20.55
2022-08-03T05:59:37.168Z,20.58
2022-08-03T06:00:15.078Z,20.59
2022-08-03T06:01:13.871Z,20.62
2022-08-03T06:02:14.304Z,20.67
2022-08-03T06:03:14.030Z,20.72
2022-08-03T06:04:13.780Z,20.74
2022-08-03T06:05:14.781Z,20.80
2022-08-03T06:06:14.479Z,20.84
2022-08-03T06:07:13.745Z,20.85
2022-08-03T06:08:15.432Z,20.91
2022-08-03T06:09:14.363Z,20.95
2022-08-03T06:10:36.785Z,20.98
2022-08-03T06:11:15.001Z,21.03
2022-08-03T06:12:14.445Z,21.09
2022-08-03T06:13:14.322Z,21.12
2022-08-03T06:14:13.655Z,21.14
2022-08-03T06:15:13.672Z,21.19
2022-08-03T06:16:13.660Z,21.24
2022-08-03T06:17:13.993Z,21.27
2022-08-03T06:18:14.698Z,21.29
2022-08-03T06:19:13.604Z,21.32
2022-08-03T06:20:14.483Z,21.37
2022-08-03T06:21:16.161Z,21.40
2022-08-03T06:22:14.143Z,21.44
2022-08-03T06:23:17.673Z,21.47
2022-08-03T06:24:13.986Z,21.52
2022-08-03T06:25:14.579Z,21.53
2022-08-03T06:26:14.427Z,21.59
2022-08-03T06:27:14.282Z,21.64
2022-08-03T06:28:42.477Z,21.69
2022-08-03T06:29:14.484Z,21.69
2022-08-03T06:30:16.025Z,21.74
2022-08-03T06:31:14.476Z,21.77
2022-08-03T06:32:13.445Z,21.80
2022-08-03T06:33:13.427Z,21.84
2022-08-03T06:34:33.975Z,21.90
2022-08-03T06:35:14.427Z,21.94
2022-08-03T06:36:13.589Z,21.99
2022-08-03T06:37:13.399Z,22.03
2022-08-03T06:38:13.488Z,22.09
2022-08-03T06:39:13.391Z,22.15
2022-08-03T06:40:14.066Z,22.18
2022-08-03T06:41:13.423Z,22.21
2022-08-03T06:42:13.834Z,22.25
2022-08-03T06:43:14.120Z,22.30
2022-08-03T06:44:13.712Z,22.31
2022-08-03T06:45:14.181Z,22.37
2022-08-03T06:46:14.002Z,22.42
2022-08-03T06:47:13.342Z,22.46
2022-08-03T06:48:13.462Z,22.46
2022-08-03T06:49:13.527Z,22.49
2022-08-03T06:50:17.258Z,22.55
2022-08-03T06:51:14.112Z,22.60
2022-08-03T06:52:13.348Z,22.64
2022-08-03T06:53:19.727Z,22.68
2022-08-03T06:54:14.192Z,22.75
2022-08-03T06:55:13.677Z,22.79
2022-08-03T06:56:13.173Z,22.83
2022-08-03T06:57:13.196Z,22.86
2022-08-03T06:58:13.828Z,22.91
2022-08-03T07:00:09.499Z,22.94
2022-08-03T07:00:14.284Z,22.95
2022-08-03T07:01:13.354Z,22.95
2022-08-03T07:02:13.728Z,22.98
2022-08-03T07:03:14.105Z,23.00
2022-08-03T07:04:13.078Z,23.04
2022-08-03T07:05:13.177Z,23.09
2022-08-03T07:06:13.549Z,23.13
2022-08-03T07:07:13.036Z,23.16
2022-08-03T07:08:13.148Z,23.19
2022-08-03T07:09:13.950Z,23.23
2022-08-03T07:10:13.017Z,23.28
2022-08-03T07:11:13.288Z,23.32
2022-08-03T07:12:14.175Z,23.35
2022-08-03T07:13:12.968Z,23.36
2022-08-03T07:14:13.989Z,23.38
2022-08-03T07:15:12.950Z,23.39
2022-08-03T07:16:13.948Z,23.40
2022-08-03T07:17:13.701Z,23.43
2022-08-03T07:18:13.722Z,23.47
2022-08-03T07:19:12.910Z,23.54
2022-08-03T07:20:13.720Z,23.58
2022-08-03T07:21:13.449Z,23.60
2022-08-03T07:22:13.738Z,23.63
2022-08-03T07:23:19.117Z,23.65
2022-08-03T07:24:15.082Z,23.65
2022-08-03T07:25:13.983Z,23.70
2022-08-03T07:26:13.487Z,23.72
2022-08-03T07:27:13.251Z,23.76
2022-08-03T07:28:13.265Z,23.80
2022-08-03T07:29:15.064Z,23.85
2022-08-03T07:30:12.776Z,23.84
2022-08-03T07:31:13.494Z,23.85
2022-08-03T07:32:14.032Z,23.88
2022-08-03T07:33:13.733Z,23.91
2022-08-03T07:34:13.623Z,23.95
2022-08-03T07:35:24.814Z,24.00
2022-08-03T07:36:14.964Z,24.08
2022-08-03T07:37:13.024Z,24.16
2022-08-03T07:38:13.336Z,24.25
2022-08-03T07:39:17.656Z,24.31
2022-08-03T07:40:13.135Z,24.32
2022-08-03T07:41:12.735Z,24.35
2022-08-03T07:42:13.809Z,24.40
2022-08-03T07:43:13.317Z,24.43
2022-08-03T07:44:12.663Z,24.47
2022-08-03T07:45:13.991Z,24.52
2022-08-03T07:46:12.806Z,24.52
2022-08-03T07:47:22.400Z,24.53
2022-08-03T07:48:14.166Z,24.58
2022-08-03T07:49:13.103Z,24.62
2022-08-03T07:50:12.858Z,24.68
2022-08-03T07:51:13.548Z,24.76
2022-08-03T07:52:13.290Z,24.83
2022-08-03T07:53:12.548Z,24.88
2022-08-03T07:54:13.259Z,24.95
2022-08-03T07:55:12.534Z,25.00
2022-08-03T07:56:13.152Z,25.05
2022-08-03T07:57:13.050Z,25.08
2022-08-03T07:58:12.979Z,25.09
2022-08-03T07:59:13.114Z,25.14
2022-08-03T08:00:12.782Z,25.18
2022-08-03T08:01:15.009Z,25.21
2022-08-03T08:02:12.563Z,25.28
2022-08-03T08:03:12.991Z,25.35
2022-08-03T08:04:12.983Z,25.40
2022-08-03T08:05:12.623Z,25.43
2022-08-03T08:06:12.707Z,25.50
2022-08-03T08:07:13.582Z,25.52
2022-08-03T08:08:12.370Z,25.54
2022-08-03T08:09:12.423Z,25.57
2022-08-03T08:10:12.333Z,25.62
2022-08-03T08:11:12.493Z,25.72
2022-08-03T08:12:15.320Z,25.80
2022-08-03T08:13:13.074Z,25.87
2022-08-03T08:14:12.300Z,25.91
2022-08-03T08:15:13.344Z,25.94
2022-08-03T08:16:12.715Z,25.98
2022-08-03T08:17:13.136Z,26.01
2022-08-03T08:18:12.758Z,26.07
2022-08-03T08:19:13.458Z,26.12
2022-08-03T08:20:13.440Z,26.13
2022-08-03T08:21:13.105Z,26.10
2022-08-03T08:22:12.638Z,26.17
2022-08-03T08:23:37.758Z,26.26
2022-08-03T08:24:18.208Z,26.30
2022-08-03T08:25:17.109Z,26.35
2022-08-03T08:26:12.337Z,26.39
2022-08-03T08:27:13.207Z,26.47
2022-08-03T08:28:31.371Z,26.55
2022-08-03T08:29:17.826Z,26.62
2022-08-03T08:30:16.006Z,26.63
2022-08-03T08:31:13.120Z,26.67
2022-08-03T08:32:13.140Z,26.75
2022-08-03T08:33:22.164Z,26.80
2022-08-03T08:34:13.605Z,26.82
2022-08-03T08:35:12.976Z,26.87
2022-08-03T08:36:15.173Z,26.89
2022-08-03T08:37:12.038Z,26.94
2022-08-03T08:38:13.199Z,27.00
2022-08-03T08:39:12.851Z,27.09
2022-08-03T08:40:12.201Z,27.17
2022-08-03T08:41:12.921Z,27.21
2022-08-03T08:42:12.589Z,27.27
2022-08-03T08:43:12.213Z,27.31
2022-08-03T08:44:12.383Z,27.37
2022-08-03T08:45:13.033Z,27.41
2022-08-03T08:46:11.945Z,27.46
2022-08-03T08:47:16.043Z,27.49
2022-08-03T08:48:12.763Z,27.50
2022-08-03T08:49:12.470Z,27.57
2022-08-03T08:50:27.109Z,27.55
2022-08-03T08:51:13.507Z,27.54
2022-08-03T08:52:22.229Z,27.59
2022-08-03T08:53:17.583Z,27.60
2022-08-03T08:54:13.726Z,27.66
2022-08-03T08:55:11.909Z,27.70
2022-08-03T08:56:16.191Z,27.78
2022-08-03T08:57:33.524Z,27.81
2022-08-03T08:58:14.540Z,27.82
2022-08-03T08:59:13.513Z,27.85
2022-08-03T09:00:15.815Z,27.87
2022-08-03T09:01:12.592Z,27.92
2022-08-03T09:02:16.123Z,27.97
2022-08-03T09:03:12.490Z,28.02
2022-08-03T09:04:13.299Z,28.03
2022-08-03T09:05:12.262Z,28.04
2022-08-03T09:06:12.604Z,28.07
2022-08-03T09:07:20.284Z,28.14
2022-08-03T09:08:12.210Z,28.19
2022-08-03T09:09:11.684Z,28.22
2022-08-03T09:10:13.878Z,28.25
2022-08-03T09:11:12.035Z,28.25
2022-08-03T09:12:37.442Z,28.29
2022-08-03T09:13:12.626Z,28.31
2022-08-03T09:14:36.808Z,28.40
2022-08-03T09:15:17.239Z,28.46
2022-08-03T09:16:16.570Z,28.55
2022-08-03T09:17:17.540Z,28.62
2022-08-03T09:18:16.893Z,28.64
2022-08-03T09:19:12.404Z,28.67
2022-08-03T09:20:15.984Z,28.66
2022-08-03T09:21:30.129Z,28.56
2022-08-03T09:22:16.764Z,28.51
2022-08-03T09:23:44.808Z,28.55
2022-08-03T09:24:25.649Z,28.61
2022-08-03T09:25:24.380Z,28.62
2022-08-03T09:26:12.678Z,28.71
2022-08-03T09:27:15.745Z,28.76
2022-08-03T09:28:11.613Z,28.71
2022-08-03T09:29:14.741Z,28.73
2022-08-03T09:30:33.140Z,28.77
2022-08-03T09:31:13.298Z,28.81
2022-08-03T09:32:14.980Z,28.80
2022-08-03T09:33:11.459Z,28.81
2022-08-03T09:34:11.648Z,28.81
2022-08-03T09:35:16.074Z,28.86
2022-08-03T09:36:12.308Z,28.90
2022-08-03T09:37:11.639Z,28.95
2022-08-03T09:38:13.461Z,29.02
2022-08-03T09:39:12.559Z,29.06
2022-08-03T09:40:12.136Z,29.12
2022-08-03T09:41:12.032Z,29.21
2022-08-03T09:42:14.900Z,29.33
2022-08-03T09:43:11.323Z,29.41
2022-08-03T09:44:25.157Z,29.33
2022-08-03T09:45:13.162Z,29.24
2022-08-03T09:46:12.062Z,29.26
2022-08-03T09:47:11.464Z,29.26
2022-08-03T09:48:12.196Z,29.27
2022-08-03T09:49:11.724Z,29.30
2022-08-03T09:50:11.554Z,29.33
2022-08-03T09:51:14.347Z,29.33
2022-08-03T09:52:31.737Z,29.33
2022-08-03T09:53:12.162Z,29.28
2022-08-03T09:54:18.868Z,29.31
2022-08-03T09:56:30.471Z,29.33
2022-08-03T09:56:34.516Z,29.41
2022-08-03T09:57:12.825Z,29.51
2022-08-03T09:58:11.202Z,29.61
2022-08-03T09:59:11.980Z,29.60
2022-08-03T10:00:11.518Z,29.60
2022-08-03T10:01:23.960Z,29.63
2022-08-03T10:02:12.396Z,29.57
2022-08-03T10:03:11.516Z,29.49
2022-08-03T10:04:11.552Z,29.48
2022-08-03T10:05:11.411Z,29.49
2022-08-03T10:06:12.391Z,29.53
2022-08-03T10:07:11.826Z,29.63
2022-08-03T10:08:11.676Z,29.67
2022-08-03T10:09:11.479Z,29.71
2022-08-03T10:10:30.689Z,29.73
2022-08-03T10:11:13.086Z,29.74
2022-08-03T10:12:10.930Z,29.74
2022-08-03T10:13:11.502Z,29.76
2022-08-03T10:14:11.651Z,29.71
2022-08-03T10:16:21.520Z,29.76
2022-08-03T10:16:22.448Z,29.76
2022-08-03T10:17:12.161Z,29.76
2022-08-03T10:18:11.016Z,29.78
2022-08-03T10:19:10.922Z,29.85
2022-08-03T10:20:11.780Z,29.90
2022-08-03T10:21:11.634Z,29.95
2022-08-03T10:22:11.784Z,29.97
2022-08-03T10:23:11.584Z,30.04
2022-08-03T10:24:11.652Z,30.11
2022-08-03T10:25:11.774Z,30.17
2022-08-03T10:26:11.005Z,30.29
2022-08-03T10:27:11.095Z,30.43
2022-08-03T10:28:11.115Z,30.43
2022-08-03T10:29:12.837Z,30.42
2022-08-03T10:30:11.813Z,30.39
2022-08-03T10:31:11.207Z,30.45
2022-08-03T10:32:11.005Z,30.42
2022-08-03T10:33:50.927Z,30.45
2022-08-03T10:34:12.215Z,30.49
2022-08-03T10:35:19.126Z,30.47
2022-08-03T10:36:12.289Z,30.35
2022-08-03T10:37:11.734Z,30.35
2022-08-03T10:38:10.678Z,30.35
2022-08-03T10:39:16.309Z,30.37
2022-08-03T10:40:16.231Z,30.35
2022-08-03T10:41:12.802Z,30.27
2022-08-03T10:42:14.731Z,30.27
2022-08-03T10:43:10.679Z,30.35
2022-08-03T10:44:10.881Z,30.49
2022-08-03T10:45:10.797Z,30.57
2022-08-03T10:46:11.310Z,30.62
2022-08-03T10:47:11.722Z,30.69
2022-08-03T10:48:10.574Z,30.67
2022-08-03T10:49:10.825Z,30.69
2022-08-03T10:50:10.989Z,30.75
2022-08-03T10:51:11.372Z,30.80
2022-08-03T10:52:30.347Z,30.84
2022-08-03T10:53:11.504Z,30.84
2022-08-03T10:54:11.850Z,30.79
2022-08-03T10:55:11.133Z,30.79
2022-08-03T10:56:10.705Z,30.80
2022-08-03T10:57:14.169Z,30.88
2022-08-03T10:58:11.394Z,30.94
2022-08-03T10:59:10.700Z,30.94
2022-08-03T11:00:10.781Z,30.84
2022-08-03T11:01:10.669Z,30.86
2022-08-03T11:02:10.681Z,30.94
2022-08-03T11:03:10.779Z,30.99
2022-08-03T11:04:14.065Z,30.97
2022-08-03T11:05:12.558Z,30.97
2022-08-03T11:06:10.979Z,30.92
2022-08-03T11:07:10.364Z,30.97
2022-08-03T11:08:11.249Z,31.09
2022-08-03T11:09:10.591Z,31.14
2022-08-03T11:10:11.085Z,31.20
2022-08-03T11:11:10.307Z,31.17
2022-08-03T11:12:10.951Z,31.10
2022-08-03T11:13:10.825Z,31.07
2022-08-03T11:14:11.044Z,30.95
2022-08-03T11:15:10.421Z,30.88
2022-08-03T11:16:18.347Z,30.83
2022-08-03T11:17:14.355Z,30.76
2022-08-03T11:18:11.174Z,30.65
2022-08-03T11:19:10.242Z,30.61
2022-08-03T11:20:10.974Z,30.70
2022-08-03T11:21:11.023Z,30.75
2022-08-03T11:22:10.512Z,30.76
2022-08-03T11:23:11.193Z,30.86
2022-08-03T11:24:12.145Z,30.95
2022-08-03T11:25:53.842Z,30.91
2022-08-03T11:26:15.606Z,30.92
2022-08-03T11:27:12.065Z,30.95
2022-08-03T11:28:10.079Z,30.99
2022-08-03T11:29:10.118Z,31.07
2022-08-03T11:30:10.205Z,30.99
2022-08-03T11:31:18.409Z,30.94
2022-08-03T11:32:11.067Z,30.88
2022-08-03T11:33:10.221Z,30.76
2022-08-03T11:34:14.069Z,30.69
2022-08-03T11:35:10.740Z,30.65
2022-08-03T11:36:10.438Z,30.60
2022-08-03T11:37:11.098Z,30.58
2022-08-03T11:38:11.109Z,30.67
2022-08-03T11:39:10.721Z,30.69
2022-08-03T11:40:15.542Z,30.70
2022-08-03T11:41:12.389Z,30.72
2022-08-03T11:42:10.159Z,30.77
2022-08-03T11:43:10.774Z,30.86
2022-08-03T11:44:10.931Z,30.98
2022-08-03T11:45:10.264Z,31.13
2022-08-03T11:46:10.744Z,31.32
2022-08-03T11:47:09.872Z,31.44
2022-08-03T11:48:10.552Z,31.56
2022-08-03T11:49:11.258Z,31.62
2022-08-03T11:50:10.806Z,31.65
2022-08-03T11:51:10.746Z,31.75
2022-08-03T11:52:10.666Z,31.78
2022-08-03T11:53:09.847Z,31.80
2022-08-03T11:54:10.318Z,31.78
2022-08-03T11:55:10.894Z,31.88
2022-08-03T11:56:12.759Z,31.92
2022-08-03T11:57:10.226Z,31.96
2022-08-03T11:59:16.753Z,31.91
2022-08-03T11:59:20.338Z,31.69
2022-08-03T12:00:12.697Z,31.62
2022-08-03T12:01:14.592Z,31.72
2022-08-03T12:02:10.769Z,31.84
2022-08-03T12:03:11.728Z,31.93
2022-08-03T12:04:10.399Z,31.92
2022-08-03T12:05:10.458Z,31.88
2022-08-03T12:06:09.719Z,31.80
2022-08-03T12:07:10.040Z,31.78
2022-08-03T12:08:09.675Z,31.88
2022-08-03T12:09:10.353Z,31.85
2022-08-03T12:10:10.764Z,31.99
2022-08-03T12:11:09.830Z,32.10
2022-08-03T12:12:09.940Z,32.21
2022-08-03T12:14:30.062Z,32.23
2022-08-03T12:14:50.667Z,32.22
2022-08-03T12:15:12.542Z,32.28
2022-08-03T12:16:09.989Z,32.47
2022-08-03T12:17:10.355Z,32.66
2022-08-03T12:18:11.026Z,32.69
2022-08-03T12:19:10.687Z,32.75
2022-08-03T12:20:10.367Z,32.65
2022-08-03T12:21:10.501Z,32.59
2022-08-03T12:22:10.450Z,32.51
2022-08-03T12:23:13.986Z,32.50
2022-08-03T12:24:13.625Z,32.56
2022-08-03T12:25:09.515Z,32.52
2022-08-03T12:26:13.426Z,32.63
2022-08-03T12:27:09.451Z,32.67
2022-08-03T12:28:31.811Z,32.63
2022-08-03T12:29:10.427Z,32.55
2022-08-03T12:30:09.387Z,32.38
2022-08-03T12:31:11.828Z,32.35
2022-08-03T12:32:10.469Z,32.28
2022-08-03T12:33:14.038Z,32.14
2022-08-03T12:34:10.298Z,32.10
2022-08-03T12:35:09.709Z,32.07
2022-08-03T12:36:10.167Z,31.91
2022-08-03T12:37:22.046Z,31.78
2022-08-03T12:38:10.375Z,31.78
2022-08-03T12:39:11.493Z,31.78
2022-08-03T12:40:10.813Z,31.80
2022-08-03T12:41:13.538Z,31.78
2022-08-03T12:42:09.302Z,31.75
2022-08-03T12:43:09.383Z,31.66
2022-08-03T12:44:09.293Z,31.73
2022-08-03T12:45:09.422Z,31.73
2022-08-03T12:46:09.607Z,31.70
2022-08-03T12:47:09.884Z,31.70
2022-08-03T12:48:09.940Z,31.88
2022-08-03T12:49:09.990Z,31.99
2022-08-03T12:50:09.998Z,32.13
2022-08-03T12:51:10.016Z,32.22
2022-08-03T12:52:09.299Z,32.28